sensor_id;sensor_type;location;lat;lon;timestamp;P1;durP1;ratioP1;P2;durP2;ratioP2
9042;SDS011;4556;49.150;8.808;2023-05-29T00:01:33;5.43;;;3.80;;
9042;SDS011;4556;49.150;8.808;2023-05-29T00:04:01;7.77;;;3.73;;
9042;SDS011;4556;49.150;8.808;2023-05-29T00:06:27;9.13;;;3.23;;
9042;SDS011;4556;49.150;8.808;2023-05-29T00:08:54;6.17;;;3.83;;
9042;SDS011;4556;49.150;8.808;2023-05-29T00:11:22;5.30;;;3.40;;
9042;SDS011;4556;49.150;8.808;2023-05-29T00:13:50;7.23;;;3.73;;
9042;SDS011;4556;49.150;8.808;2023-05-29T00:16:17;5.63;;;3.80;;
9042;SDS011;4556;49.150;8.808;2023-05-29T00:18:44;9.47;;;3.30;;
9042;SDS011;4556;49.150;8.808;2023-05-29T00:21:11;7.93;;;3.80;;
9042;SDS011;4556;49.150;8.808;2023-05-29T00:23:38;8.00;;;3.50;;
9042;SDS011;4556;49.150;8.808;2023-05-29T00:26:05;6.23;;;3.80;;
9042;SDS011;4556;49.150;8.808;2023-05-29T00:28:34;5.03;;;3.40;;
9042;SDS011;4556;49.150;8.808;2023-05-29T00:31:01;4.57;;;3.23;;
9042;SDS011;4556;49.150;8.808;2023-05-29T00:33:28;5.63;;;3.40;;
9042;SDS011;4556;49.150;8.808;2023-05-29T00:35:55;4.63;;;3.07;;
9042;SDS011;4556;49.150;8.808;2023-05-29T00:38:22;5.30;;;3.43;;
9042;SDS011;4556;49.150;8.808;2023-05-29T00:40:49;6.23;;;3.30;;
9042;SDS011;4556;49.150;8.808;2023-05-29T00:43:16;10.40;;;3.70;;
9042;SDS011;4556;49.150;8.808;2023-05-29T00:45:44;5.47;;;3.10;;
9042;SDS011;4556;49.150;8.808;2023-05-29T00:48:11;5.07;;;3.23;;
9042;SDS011;4556;49.150;8.808;2023-05-29T00:50:38;5.90;;;3.10;;
9042;SDS011;4556;49.150;8.808;2023-05-29T00:53:05;6.27;;;3.00;;
9042;SDS011;4556;49.150;8.808;2023-05-29T00:55:33;5.33;;;3.13;;
9042;SDS011;4556;49.150;8.808;2023-05-29T00:58:00;6.03;;;3.40;;
9042;SDS011;4556;49.150;8.808;2023-05-29T01:00:28;4.77;;;3.00;;
9042;SDS011;4556;49.150;8.808;2023-05-29T01:02:57;5.80;;;2.70;;
9042;SDS011;4556;49.150;8.808;2023-05-29T01:05:24;5.23;;;3.13;;
9042;SDS011;4556;49.150;8.808;2023-05-29T01:07:51;5.03;;;3.40;;
9042;SDS011;4556;49.150;8.808;2023-05-29T01:10:18;6.37;;;3.23;;
9042;SDS011;4556;49.150;8.808;2023-05-29T01:12:47;6.17;;;3.40;;
9042;SDS011;4556;49.150;8.808;2023-05-29T01:15:21;5.97;;;3.63;;
9042;SDS011;4556;49.150;8.808;2023-05-29T01:18:19;6.37;;;3.17;;
9042;SDS011;4556;49.150;8.808;2023-05-29T01:21:00;6.97;;;3.37;;
9042;SDS011;4556;49.150;8.808;2023-05-29T01:23:51;4.83;;;2.90;;
9042;SDS011;4556;49.150;8.808;2023-05-29T01:29:22;6.83;;;3.33;;
9042;SDS011;4556;49.150;8.808;2023-05-29T01:31:52;4.97;;;3.03;;
9042;SDS011;4556;49.150;8.808;2023-05-29T01:34:20;4.17;;;3.10;;
9042;SDS011;4556;49.150;8.808;2023-05-29T01:36:47;5.87;;;3.37;;
9042;SDS011;4556;49.150;8.808;2023-05-29T01:39:16;4.20;;;3.30;;
9042;SDS011;4556;49.150;8.808;2023-05-29T01:41:44;4.83;;;3.10;;
9042;SDS011;4556;49.150;8.808;2023-05-29T01:44:14;3.87;;;2.83;;
9042;SDS011;4556;49.150;8.808;2023-05-29T01:46:42;5.13;;;3.13;;
9042;SDS011;4556;49.150;8.808;2023-05-29T01:49:10;4.63;;;3.17;;
9042;SDS011;4556;49.150;8.808;2023-05-29T01:51:37;4.73;;;3.10;;
9042;SDS011;4556;49.150;8.808;2023-05-29T01:54:05;5.17;;;3.27;;
9042;SDS011;4556;49.150;8.808;2023-05-29T01:56:33;5.70;;;3.43;;
9042;SDS011;4556;49.150;8.808;2023-05-29T01:59:01;8.67;;;3.70;;
9042;SDS011;4556;49.150;8.808;2023-05-29T02:01:31;6.43;;;3.07;;
9042;SDS011;4556;49.150;8.808;2023-05-29T02:03:58;5.43;;;3.47;;
9042;SDS011;4556;49.150;8.808;2023-05-29T02:06:25;5.93;;;3.17;;
9042;SDS011;4556;49.150;8.808;2023-05-29T02:08:52;6.13;;;3.13;;
9042;SDS011;4556;49.150;8.808;2023-05-29T02:11:19;5.43;;;2.90;;
9042;SDS011;4556;49.150;8.808;2023-05-29T02:13:46;3.47;;;2.90;;
9042;SDS011;4556;49.150;8.808;2023-05-29T02:16:14;4.47;;;3.17;;
9042;SDS011;4556;49.150;8.808;2023-05-29T02:18:43;5.93;;;3.30;;
9042;SDS011;4556;49.150;8.808;2023-05-29T02:21:10;3.83;;;2.57;;
9042;SDS011;4556;49.150;8.808;2023-05-29T02:23:37;4.77;;;3.10;;
9042;SDS011;4556;49.150;8.808;2023-05-29T02:26:04;4.63;;;3.37;;
9042;SDS011;4556;49.150;8.808;2023-05-29T02:28:32;5.53;;;3.30;;
9042;SDS011;4556;49.150;8.808;2023-05-29T02:30:58;5.77;;;3.10;;
9042;SDS011;4556;49.150;8.808;2023-05-29T02:33:26;6.00;;;3.00;;
9042;SDS011;4556;49.150;8.808;2023-05-29T02:35:54;5.83;;;2.83;;
9042;SDS011;4556;49.150;8.808;2023-05-29T02:38:21;8.87;;;3.17;;
9042;SDS011;4556;49.150;8.808;2023-05-29T02:40:55;5.03;;;2.83;;
9042;SDS011;4556;49.150;8.808;2023-05-29T02:43:22;4.87;;;3.03;;
9042;SDS011;4556;49.150;8.808;2023-05-29T02:45:49;4.33;;;2.97;;
9042;SDS011;4556;49.150;8.808;2023-05-29T02:48:16;6.83;;;3.47;;
9042;SDS011;4556;49.150;8.808;2023-05-29T02:50:44;6.77;;;3.30;;
9042;SDS011;4556;49.150;8.808;2023-05-29T02:53:12;5.10;;;3.33;;
9042;SDS011;4556;49.150;8.808;2023-05-29T02:55:39;5.87;;;3.10;;
9042;SDS011;4556;49.150;8.808;2023-05-29T02:58:07;6.57;;;3.20;;
9042;SDS011;4556;49.150;8.808;2023-05-29T03:00:37;5.87;;;3.30;;
9042;SDS011;4556;49.150;8.808;2023-05-29T03:03:04;6.70;;;3.30;;
9042;SDS011;4556;49.150;8.808;2023-05-29T03:05:31;4.40;;;3.10;;
9042;SDS011;4556;49.150;8.808;2023-05-29T03:07:59;5.80;;;3.30;;
9042;SDS011;4556;49.150;8.808;2023-05-29T03:10:27;4.67;;;3.43;;
9042;SDS011;4556;49.150;8.808;2023-05-29T03:12:54;5.17;;;3.57;;
9042;SDS011;4556;49.150;8.808;2023-05-29T03:15:21;3.97;;;3.17;;
9042;SDS011;4556;49.150;8.808;2023-05-29T03:17:48;4.67;;;3.03;;
9042;SDS011;4556;49.150;8.808;2023-05-29T03:20:15;8.03;;;3.40;;
9042;SDS011;4556;49.150;8.808;2023-05-29T03:22:42;6.20;;;3.40;;
9042;SDS011;4556;49.150;8.808;2023-05-29T03:25:09;7.07;;;3.17;;
9042;SDS011;4556;49.150;8.808;2023-05-29T03:27:37;4.13;;;2.87;;
9042;SDS011;4556;49.150;8.808;2023-05-29T03:30:05;6.03;;;3.10;;
9042;SDS011;4556;49.150;8.808;2023-05-29T03:32:34;5.97;;;3.70;;
9042;SDS011;4556;49.150;8.808;2023-05-29T03:35:01;5.47;;;3.33;;
9042;SDS011;4556;49.150;8.808;2023-05-29T03:37:29;4.97;;;3.27;;
9042;SDS011;4556;49.150;8.808;2023-05-29T03:39:56;6.33;;;3.57;;
9042;SDS011;4556;49.150;8.808;2023-05-29T03:42:22;7.17;;;3.40;;
9042;SDS011;4556;49.150;8.808;2023-05-29T03:44:51;6.17;;;3.37;;
9042;SDS011;4556;49.150;8.808;2023-05-29T03:47:18;3.70;;;3.07;;
9042;SDS011;4556;49.150;8.808;2023-05-29T03:49:45;5.57;;;3.47;;
9042;SDS011;4556;49.150;8.808;2023-05-29T03:52:12;4.63;;;3.20;;
9042;SDS011;4556;49.150;8.808;2023-05-29T03:54:40;6.60;;;3.67;;
9042;SDS011;4556;49.150;8.808;2023-05-29T03:57:07;5.37;;;3.47;;
9042;SDS011;4556;49.150;8.808;2023-05-29T03:59:34;5.23;;;3.33;;
9042;SDS011;4556;49.150;8.808;2023-05-29T04:02:02;7.30;;;3.30;;
9042;SDS011;4556;49.150;8.808;2023-05-29T04:04:29;5.60;;;3.67;;
9042;SDS011;4556;49.150;8.808;2023-05-29T04:06:56;9.37;;;3.50;;
9042;SDS011;4556;49.150;8.808;2023-05-29T04:09:23;5.63;;;3.70;;
9042;SDS011;4556;49.150;8.808;2023-05-29T04:11:49;3.80;;;3.00;;
9042;SDS011;4556;49.150;8.808;2023-05-29T04:14:19;5.03;;;3.30;;
9042;SDS011;4556;49.150;8.808;2023-05-29T04:16:46;5.20;;;3.40;;
9042;SDS011;4556;49.150;8.808;2023-05-29T04:19:15;5.07;;;3.47;;
9042;SDS011;4556;49.150;8.808;2023-05-29T04:21:42;4.53;;;3.60;;
9042;SDS011;4556;49.150;8.808;2023-05-29T04:24:08;6.20;;;3.43;;
9042;SDS011;4556;49.150;8.808;2023-05-29T04:26:36;6.67;;;3.60;;
9042;SDS011;4556;49.150;8.808;2023-05-29T04:29:06;5.57;;;3.90;;
9042;SDS011;4556;49.150;8.808;2023-05-29T04:31:33;6.43;;;3.17;;
9042;SDS011;4556;49.150;8.808;2023-05-29T04:34:01;7.40;;;4.37;;
9042;SDS011;4556;49.150;8.808;2023-05-29T04:36:31;7.73;;;3.70;;
9042;SDS011;4556;49.150;8.808;2023-05-29T04:39:04;5.57;;;3.80;;
9042;SDS011;4556;49.150;8.808;2023-05-29T04:41:32;7.00;;;4.07;;
9042;SDS011;4556;49.150;8.808;2023-05-29T04:44:00;7.07;;;3.80;;
9042;SDS011;4556;49.150;8.808;2023-05-29T04:46:28;5.43;;;3.77;;
9042;SDS011;4556;49.150;8.808;2023-05-29T04:48:56;7.00;;;4.00;;
9042;SDS011;4556;49.150;8.808;2023-05-29T04:51:22;5.57;;;3.90;;
9042;SDS011;4556;49.150;8.808;2023-05-29T04:53:51;6.43;;;4.07;;
9042;SDS011;4556;49.150;8.808;2023-05-29T04:56:18;5.27;;;3.93;;
9042;SDS011;4556;49.150;8.808;2023-05-29T04:58:45;6.20;;;3.60;;
9042;SDS011;4556;49.150;8.808;2023-05-29T05:01:12;5.43;;;3.83;;
9042;SDS011;4556;49.150;8.808;2023-05-29T05:03:39;7.33;;;3.90;;
9042;SDS011;4556;49.150;8.808;2023-05-29T05:06:06;5.77;;;3.53;;
9042;SDS011;4556;49.150;8.808;2023-05-29T05:08:33;5.63;;;3.87;;
9042;SDS011;4556;49.150;8.808;2023-05-29T05:11:02;5.03;;;3.83;;
9042;SDS011;4556;49.150;8.808;2023-05-29T05:13:29;4.73;;;3.70;;
9042;SDS011;4556;49.150;8.808;2023-05-29T05:15:56;4.97;;;3.70;;
9042;SDS011;4556;49.150;8.808;2023-05-29T05:18:23;5.80;;;3.33;;
9042;SDS011;4556;49.150;8.808;2023-05-29T05:20:50;5.93;;;3.60;;
9042;SDS011;4556;49.150;8.808;2023-05-29T05:23:17;4.87;;;3.20;;
9042;SDS011;4556;49.150;8.808;2023-05-29T05:25:44;6.40;;;3.80;;
9042;SDS011;4556;49.150;8.808;2023-05-29T05:28:13;5.23;;;3.23;;
9042;SDS011;4556;49.150;8.808;2023-05-29T05:30:40;6.00;;;3.40;;
9042;SDS011;4556;49.150;8.808;2023-05-29T05:33:07;5.97;;;3.53;;
9042;SDS011;4556;49.150;8.808;2023-05-29T05:35:34;6.77;;;3.10;;
9042;SDS011;4556;49.150;8.808;2023-05-29T05:38:01;5.53;;;3.07;;
9042;SDS011;4556;49.150;8.808;2023-05-29T05:40:30;5.03;;;3.03;;
9042;SDS011;4556;49.150;8.808;2023-05-29T05:42:56;4.60;;;3.23;;
9042;SDS011;4556;49.150;8.808;2023-05-29T05:45:25;4.63;;;3.10;;
9042;SDS011;4556;49.150;8.808;2023-05-29T05:47:51;4.53;;;3.00;;
9042;SDS011;4556;49.150;8.808;2023-05-29T05:50:18;7.70;;;3.10;;
9042;SDS011;4556;49.150;8.808;2023-05-29T05:52:46;7.93;;;2.83;;
9042;SDS011;4556;49.150;8.808;2023-05-29T05:55:13;4.77;;;3.00;;
9042;SDS011;4556;49.150;8.808;2023-05-29T05:57:40;4.87;;;3.10;;
9042;SDS011;4556;49.150;8.808;2023-05-29T06:00:08;4.90;;;2.63;;
9042;SDS011;4556;49.150;8.808;2023-05-29T06:02:37;5.57;;;2.57;;
9042;SDS011;4556;49.150;8.808;2023-05-29T06:05:06;6.47;;;3.10;;
9042;SDS011;4556;49.150;8.808;2023-05-29T06:07:34;5.03;;;3.10;;
9042;SDS011;4556;49.150;8.808;2023-05-29T06:10:01;5.23;;;2.70;;
9042;SDS011;4556;49.150;8.808;2023-05-29T06:12:29;5.57;;;2.73;;
9042;SDS011;4556;49.150;8.808;2023-05-29T06:14:56;3.60;;;2.57;;
9042;SDS011;4556;49.150;8.808;2023-05-29T06:17:23;4.50;;;2.90;;
9042;SDS011;4556;49.150;8.808;2023-05-29T06:19:53;4.97;;;2.93;;
9042;SDS011;4556;49.150;8.808;2023-05-29T06:22:20;3.83;;;2.83;;
9042;SDS011;4556;49.150;8.808;2023-05-29T06:24:46;4.63;;;2.60;;
9042;SDS011;4556;49.150;8.808;2023-05-29T06:27:13;4.77;;;2.60;;
9042;SDS011;4556;49.150;8.808;2023-05-29T06:29:40;4.63;;;2.50;;
9042;SDS011;4556;49.150;8.808;2023-05-29T06:32:08;6.17;;;2.80;;
9042;SDS011;4556;49.150;8.808;2023-05-29T06:34:34;3.87;;;2.70;;
9042;SDS011;4556;49.150;8.808;2023-05-29T06:37:03;5.63;;;2.67;;
9042;SDS011;4556;49.150;8.808;2023-05-29T06:39:31;4.83;;;2.60;;
9042;SDS011;4556;49.150;8.808;2023-05-29T06:41:59;5.13;;;2.70;;
9042;SDS011;4556;49.150;8.808;2023-05-29T06:44:26;5.93;;;3.03;;
9042;SDS011;4556;49.150;8.808;2023-05-29T06:46:53;4.20;;;2.60;;
9042;SDS011;4556;49.150;8.808;2023-05-29T06:49:19;6.83;;;2.60;;
9042;SDS011;4556;49.150;8.808;2023-05-29T06:51:46;6.37;;;2.40;;
9042;SDS011;4556;49.150;8.808;2023-05-29T06:54:14;4.43;;;2.40;;
9042;SDS011;4556;49.150;8.808;2023-05-29T06:56:41;5.13;;;2.40;;
9042;SDS011;4556;49.150;8.808;2023-05-29T06:59:08;4.33;;;2.63;;
9042;SDS011;4556;49.150;8.808;2023-05-29T07:01:35;5.27;;;2.90;;
9042;SDS011;4556;49.150;8.808;2023-05-29T07:04:02;4.63;;;2.87;;
9042;SDS011;4556;49.150;8.808;2023-05-29T07:06:29;3.80;;;2.53;;
9042;SDS011;4556;49.150;8.808;2023-05-29T07:08:56;4.13;;;2.63;;
9042;SDS011;4556;49.150;8.808;2023-05-29T07:11:25;4.83;;;2.93;;
9042;SDS011;4556;49.150;8.808;2023-05-29T07:13:52;5.83;;;2.73;;
9042;SDS011;4556;49.150;8.808;2023-05-29T07:16:19;6.40;;;2.77;;
9042;SDS011;4556;49.150;8.808;2023-05-29T07:18:47;5.90;;;2.87;;
9042;SDS011;4556;49.150;8.808;2023-05-29T07:21:13;4.27;;;2.23;;
9042;SDS011;4556;49.150;8.808;2023-05-29T07:23:40;6.30;;;2.90;;
9042;SDS011;4556;49.150;8.808;2023-05-29T07:26:07;6.23;;;2.53;;
9042;SDS011;4556;49.150;8.808;2023-05-29T07:28:35;4.30;;;2.40;;
9042;SDS011;4556;49.150;8.808;2023-05-29T07:31:02;6.53;;;2.50;;
9042;SDS011;4556;49.150;8.808;2023-05-29T07:33:29;3.73;;;2.53;;
9042;SDS011;4556;49.150;8.808;2023-05-29T07:35:56;5.83;;;2.80;;
9042;SDS011;4556;49.150;8.808;2023-05-29T07:38:23;2.93;;;2.37;;
9042;SDS011;4556;49.150;8.808;2023-05-29T07:40:50;5.33;;;2.70;;
9042;SDS011;4556;49.150;8.808;2023-05-29T07:43:17;5.63;;;2.63;;
9042;SDS011;4556;49.150;8.808;2023-05-29T07:45:46;6.50;;;2.50;;
9042;SDS011;4556;49.150;8.808;2023-05-29T07:48:13;4.97;;;2.67;;
9042;SDS011;4556;49.150;8.808;2023-05-29T07:50:40;6.00;;;2.80;;
9042;SDS011;4556;49.150;8.808;2023-05-29T07:53:07;4.30;;;2.47;;
9042;SDS011;4556;49.150;8.808;2023-05-29T07:55:34;7.20;;;2.90;;
9042;SDS011;4556;49.150;8.808;2023-05-29T07:58:01;4.50;;;2.63;;
9042;SDS011;4556;49.150;8.808;2023-05-29T08:00:28;6.17;;;2.87;;
9042;SDS011;4556;49.150;8.808;2023-05-29T08:02:56;7.70;;;2.63;;
9042;SDS011;4556;49.150;8.808;2023-05-29T08:05:23;4.00;;;2.57;;
9042;SDS011;4556;49.150;8.808;2023-05-29T08:07:50;4.93;;;2.73;;
9042;SDS011;4556;49.150;8.808;2023-05-29T08:10:17;4.93;;;2.80;;
9042;SDS011;4556;49.150;8.808;2023-05-29T08:12:44;3.93;;;2.70;;
9042;SDS011;4556;49.150;8.808;2023-05-29T08:15:10;4.33;;;2.33;;
9042;SDS011;4556;49.150;8.808;2023-05-29T08:17:38;5.27;;;3.00;;
9042;SDS011;4556;49.150;8.808;2023-05-29T08:20:06;4.77;;;2.80;;
9042;SDS011;4556;49.150;8.808;2023-05-29T08:22:35;5.77;;;2.70;;
9042;SDS011;4556;49.150;8.808;2023-05-29T08:25:02;5.90;;;2.80;;
9042;SDS011;4556;49.150;8.808;2023-05-29T08:27:30;5.93;;;2.77;;
9042;SDS011;4556;49.150;8.808;2023-05-29T08:29:57;4.10;;;2.70;;
9042;SDS011;4556;49.150;8.808;2023-05-29T08:32:24;4.43;;;2.60;;
9042;SDS011;4556;49.150;8.808;2023-05-29T08:34:51;9.10;;;3.23;;
9042;SDS011;4556;49.150;8.808;2023-05-29T08:37:20;8.20;;;2.60;;
9042;SDS011;4556;49.150;8.808;2023-05-29T08:39:48;7.83;;;3.10;;
9042;SDS011;4556;49.150;8.808;2023-05-29T08:42:18;4.53;;;2.43;;
9042;SDS011;4556;49.150;8.808;2023-05-29T08:44:47;5.53;;;2.67;;
9042;SDS011;4556;49.150;8.808;2023-05-29T08:47:16;6.90;;;2.87;;
9042;SDS011;4556;49.150;8.808;2023-05-29T08:49:45;8.57;;;2.67;;
9042;SDS011;4556;49.150;8.808;2023-05-29T08:52:20;5.10;;;2.57;;
9042;SDS011;4556;49.150;8.808;2023-05-29T08:54:48;3.50;;;2.27;;
9042;SDS011;4556;49.150;8.808;2023-05-29T08:57:17;4.37;;;2.80;;
9042;SDS011;4556;49.150;8.808;2023-05-29T08:59:45;4.77;;;2.90;;
9042;SDS011;4556;49.150;8.808;2023-05-29T09:02:14;4.47;;;3.00;;
9042;SDS011;4556;49.150;8.808;2023-05-29T09:04:41;4.93;;;2.57;;
9042;SDS011;4556;49.150;8.808;2023-05-29T09:07:09;5.70;;;3.03;;
9042;SDS011;4556;49.150;8.808;2023-05-29T09:09:39;4.97;;;3.03;;
9042;SDS011;4556;49.150;8.808;2023-05-29T09:12:06;4.40;;;2.70;;
9042;SDS011;4556;49.150;8.808;2023-05-29T09:14:35;4.60;;;2.70;;
9042;SDS011;4556;49.150;8.808;2023-05-29T09:17:03;4.00;;;2.70;;
9042;SDS011;4556;49.150;8.808;2023-05-29T09:19:32;3.83;;;2.70;;
9042;SDS011;4556;49.150;8.808;2023-05-29T09:22:00;3.17;;;2.40;;
9042;SDS011;4556;49.150;8.808;2023-05-29T09:24:29;6.77;;;2.60;;
9042;SDS011;4556;49.150;8.808;2023-05-29T09:26:58;4.97;;;3.13;;
9042;SDS011;4556;49.150;8.808;2023-05-29T09:29:26;4.13;;;2.60;;
9042;SDS011;4556;49.150;8.808;2023-05-29T09:31:53;4.57;;;2.57;;
9042;SDS011;4556;49.150;8.808;2023-05-29T09:34:22;3.47;;;2.37;;
9042;SDS011;4556;49.150;8.808;2023-05-29T09:36:51;4.63;;;2.70;;
9042;SDS011;4556;49.150;8.808;2023-05-29T09:39:26;6.13;;;2.67;;
9042;SDS011;4556;49.150;8.808;2023-05-29T09:41:53;4.70;;;2.80;;
9042;SDS011;4556;49.150;8.808;2023-05-29T09:44:21;4.50;;;2.60;;
9042;SDS011;4556;49.150;8.808;2023-05-29T09:46:48;6.10;;;2.60;;
9042;SDS011;4556;49.150;8.808;2023-05-29T09:49:15;4.23;;;2.33;;
9042;SDS011;4556;49.150;8.808;2023-05-29T09:51:45;5.43;;;2.60;;
9042;SDS011;4556;49.150;8.808;2023-05-29T09:54:14;4.37;;;2.70;;
9042;SDS011;4556;49.150;8.808;2023-05-29T09:56:42;4.80;;;2.60;;
9042;SDS011;4556;49.150;8.808;2023-05-29T09:59:10;4.90;;;2.60;;
9042;SDS011;4556;49.150;8.808;2023-05-29T10:01:40;6.20;;;2.67;;
9042;SDS011;4556;49.150;8.808;2023-05-29T10:04:10;4.93;;;2.60;;
9042;SDS011;4556;49.150;8.808;2023-05-29T10:06:41;6.03;;;3.00;;
9042;SDS011;4556;49.150;8.808;2023-05-29T10:09:10;5.93;;;2.23;;
9042;SDS011;4556;49.150;8.808;2023-05-29T10:11:40;5.43;;;2.30;;
9042;SDS011;4556;49.150;8.808;2023-05-29T10:14:14;5.13;;;2.50;;
9042;SDS011;4556;49.150;8.808;2023-05-29T10:16:46;5.43;;;2.50;;
9042;SDS011;4556;49.150;8.808;2023-05-29T10:19:15;5.33;;;2.50;;
9042;SDS011;4556;49.150;8.808;2023-05-29T10:21:47;4.70;;;2.37;;
9042;SDS011;4556;49.150;8.808;2023-05-29T10:24:15;4.30;;;2.47;;
9042;SDS011;4556;49.150;8.808;2023-05-29T10:26:43;5.90;;;2.73;;
9042;SDS011;4556;49.150;8.808;2023-05-29T10:29:15;5.43;;;2.60;;
9042;SDS011;4556;49.150;8.808;2023-05-29T10:31:52;3.60;;;2.47;;
9042;SDS011;4556;49.150;8.808;2023-05-29T10:34:39;5.10;;;2.37;;
9042;SDS011;4556;49.150;8.808;2023-05-29T10:37:15;7.53;;;2.83;;
9042;SDS011;4556;49.150;8.808;2023-05-29T10:39:50;3.73;;;2.43;;
9042;SDS011;4556;49.150;8.808;2023-05-29T10:51:26;5.03;;;2.33;;
9042;SDS011;4556;49.150;8.808;2023-05-29T10:53:54;5.30;;;2.60;;
9042;SDS011;4556;49.150;8.808;2023-05-29T10:56:21;5.13;;;2.53;;
9042;SDS011;4556;49.150;8.808;2023-05-29T10:58:55;5.50;;;2.60;;
9042;SDS011;4556;49.150;8.808;2023-05-29T11:01:26;4.90;;;2.33;;
9042;SDS011;4556;49.150;8.808;2023-05-29T11:07:00;4.57;;;2.70;;
9042;SDS011;4556;49.150;8.808;2023-05-29T11:09:31;4.93;;;2.70;;
9042;SDS011;4556;49.150;8.808;2023-05-29T11:12:17;4.00;;;2.30;;
9042;SDS011;4556;49.150;8.808;2023-05-29T11:15:00;4.43;;;2.40;;
9042;SDS011;4556;49.150;8.808;2023-05-29T11:17:30;4.67;;;2.53;;
9042;SDS011;4556;49.150;8.808;2023-05-29T11:20:00;4.77;;;2.83;;
9042;SDS011;4556;49.150;8.808;2023-05-29T11:22:33;3.77;;;2.30;;
9042;SDS011;4556;49.150;8.808;2023-05-29T11:25:14;4.13;;;2.20;;
9042;SDS011;4556;49.150;8.808;2023-05-29T11:27:43;4.33;;;2.57;;
9042;SDS011;4556;49.150;8.808;2023-05-29T11:30:11;5.63;;;2.53;;
9042;SDS011;4556;49.150;8.808;2023-05-29T11:32:39;5.27;;;2.50;;
9042;SDS011;4556;49.150;8.808;2023-05-29T11:35:07;3.80;;;2.20;;
9042;SDS011;4556;49.150;8.808;2023-05-29T11:37:36;5.63;;;2.33;;
9042;SDS011;4556;49.150;8.808;2023-05-29T11:40:08;4.17;;;2.17;;
9042;SDS011;4556;49.150;8.808;2023-05-29T11:42:37;5.67;;;2.13;;
9042;SDS011;4556;49.150;8.808;2023-05-29T11:45:09;8.80;;;2.77;;
9042;SDS011;4556;49.150;8.808;2023-05-29T11:47:52;4.60;;;2.50;;
9042;SDS011;4556;49.150;8.808;2023-05-29T11:50:20;4.90;;;2.40;;
9042;SDS011;4556;49.150;8.808;2023-05-29T11:52:50;5.67;;;2.40;;
9042;SDS011;4556;49.150;8.808;2023-05-29T11:55:17;2.73;;;1.93;;
9042;SDS011;4556;49.150;8.808;2023-05-29T11:57:45;3.63;;;2.63;;
9042;SDS011;4556;49.150;8.808;2023-05-29T12:00:14;3.40;;;2.40;;
9042;SDS011;4556;49.150;8.808;2023-05-29T12:02:42;6.07;;;2.40;;
9042;SDS011;4556;49.150;8.808;2023-05-29T12:05:12;3.43;;;2.20;;
9042;SDS011;4556;49.150;8.808;2023-05-29T12:07:46;5.20;;;2.60;;
9042;SDS011;4556;49.150;8.808;2023-05-29T12:10:16;5.07;;;2.30;;
9042;SDS011;4556;49.150;8.808;2023-05-29T12:12:46;2.60;;;2.10;;
9042;SDS011;4556;49.150;8.808;2023-05-29T12:15:13;8.43;;;2.53;;
9042;SDS011;4556;49.150;8.808;2023-05-29T12:17:41;3.97;;;2.20;;
9042;SDS011;4556;49.150;8.808;2023-05-29T12:20:09;4.50;;;2.43;;
9042;SDS011;4556;49.150;8.808;2023-05-29T12:22:39;3.33;;;2.03;;
9042;SDS011;4556;49.150;8.808;2023-05-29T12:25:07;5.90;;;2.60;;
9042;SDS011;4556;49.150;8.808;2023-05-29T12:27:37;4.30;;;2.33;;
9042;SDS011;4556;49.150;8.808;2023-05-29T12:30:08;4.00;;;2.13;;
9042;SDS011;4556;49.150;8.808;2023-05-29T12:32:36;3.73;;;2.60;;
9042;SDS011;4556;49.150;8.808;2023-05-29T12:35:11;2.37;;;2.10;;
9042;SDS011;4556;49.150;8.808;2023-05-29T12:37:43;8.57;;;2.37;;
9042;SDS011;4556;49.150;8.808;2023-05-29T12:40:17;5.03;;;2.43;;
9042;SDS011;4556;49.150;8.808;2023-05-29T12:42:46;3.17;;;2.13;;
9042;SDS011;4556;49.150;8.808;2023-05-29T12:45:14;2.87;;;2.10;;
9042;SDS011;4556;49.150;8.808;2023-05-29T12:47:50;3.03;;;2.33;;
9042;SDS011;4556;49.150;8.808;2023-05-29T12:50:21;3.50;;;2.23;;
9042;SDS011;4556;49.150;8.808;2023-05-29T12:52:57;4.67;;;2.40;;
9042;SDS011;4556;49.150;8.808;2023-05-29T12:55:25;3.53;;;2.40;;
9042;SDS011;4556;49.150;8.808;2023-05-29T12:57:54;4.07;;;2.33;;
9042;SDS011;4556;49.150;8.808;2023-05-29T13:00:23;2.80;;;2.10;;
9042;SDS011;4556;49.150;8.808;2023-05-29T13:02:50;3.37;;;1.90;;
9042;SDS011;4556;49.150;8.808;2023-05-29T13:05:17;4.07;;;2.23;;
9042;SDS011;4556;49.150;8.808;2023-05-29T13:07:47;2.83;;;2.20;;
9042;SDS011;4556;49.150;8.808;2023-05-29T13:10:15;3.33;;;2.23;;
9042;SDS011;4556;49.150;8.808;2023-05-29T13:12:43;4.90;;;2.10;;
9042;SDS011;4556;49.150;8.808;2023-05-29T13:15:12;2.80;;;2.07;;
9042;SDS011;4556;49.150;8.808;2023-05-29T13:17:40;2.73;;;2.27;;
9042;SDS011;4556;49.150;8.808;2023-05-29T13:20:09;4.57;;;2.50;;
9042;SDS011;4556;49.150;8.808;2023-05-29T13:22:37;3.27;;;2.10;;
9042;SDS011;4556;49.150;8.808;2023-05-29T13:25:05;2.83;;;2.00;;
9042;SDS011;4556;49.150;8.808;2023-05-29T13:27:34;2.70;;;2.07;;
9042;SDS011;4556;49.150;8.808;2023-05-29T13:30:02;4.17;;;2.00;;
9042;SDS011;4556;49.150;8.808;2023-05-29T13:32:32;4.57;;;2.10;;
9042;SDS011;4556;49.150;8.808;2023-05-29T13:34:58;5.00;;;2.27;;
9042;SDS011;4556;49.150;8.808;2023-05-29T13:37:26;5.30;;;2.20;;
9042;SDS011;4556;49.150;8.808;2023-05-29T13:39:53;3.70;;;2.50;;
9042;SDS011;4556;49.150;8.808;2023-05-29T13:42:20;3.90;;;2.13;;
9042;SDS011;4556;49.150;8.808;2023-05-29T13:44:47;2.87;;;2.33;;
9042;SDS011;4556;49.150;8.808;2023-05-29T13:47:15;4.90;;;1.87;;
9042;SDS011;4556;49.150;8.808;2023-05-29T13:49:43;3.50;;;2.20;;
9042;SDS011;4556;49.150;8.808;2023-05-29T13:52:10;3.77;;;2.40;;
9042;SDS011;4556;49.150;8.808;2023-05-29T13:54:37;3.97;;;2.07;;
9042;SDS011;4556;49.150;8.808;2023-05-29T13:57:05;5.70;;;1.90;;
9042;SDS011;4556;49.150;8.808;2023-05-29T13:59:33;6.00;;;2.13;;
9042;SDS011;4556;49.150;8.808;2023-05-29T14:02:00;2.90;;;2.30;;
9042;SDS011;4556;49.150;8.808;2023-05-29T14:04:28;5.70;;;2.37;;
9042;SDS011;4556;49.150;8.808;2023-05-29T14:06:57;3.83;;;2.37;;
9042;SDS011;4556;49.150;8.808;2023-05-29T14:09:24;3.80;;;2.23;;
9042;SDS011;4556;49.150;8.808;2023-05-29T14:11:53;5.43;;;2.13;;
9042;SDS011;4556;49.150;8.808;2023-05-29T14:14:20;3.83;;;2.20;;
9042;SDS011;4556;49.150;8.808;2023-05-29T14:16:47;2.60;;;1.90;;
9042;SDS011;4556;49.150;8.808;2023-05-29T14:19:15;3.17;;;2.03;;
9042;SDS011;4556;49.150;8.808;2023-05-29T14:21:42;2.83;;;2.20;;
9042;SDS011;4556;49.150;8.808;2023-05-29T14:24:11;3.30;;;1.90;;
9042;SDS011;4556;49.150;8.808;2023-05-29T14:26:38;3.13;;;2.00;;
9042;SDS011;4556;49.150;8.808;2023-05-29T14:29:06;4.87;;;2.03;;
9042;SDS011;4556;49.150;8.808;2023-05-29T14:31:33;4.20;;;2.10;;
9042;SDS011;4556;49.150;8.808;2023-05-29T14:34:00;2.50;;;2.10;;
9042;SDS011;4556;49.150;8.808;2023-05-29T14:36:27;3.37;;;2.23;;
9042;SDS011;4556;49.150;8.808;2023-05-29T14:38:54;4.90;;;2.67;;
9042;SDS011;4556;49.150;8.808;2023-05-29T14:41:23;5.53;;;2.60;;
9042;SDS011;4556;49.150;8.808;2023-05-29T14:43:50;3.03;;;2.00;;
9042;SDS011;4556;49.150;8.808;2023-05-29T14:46:17;4.50;;;2.40;;
9042;SDS011;4556;49.150;8.808;2023-05-29T14:48:44;4.17;;;1.87;;
9042;SDS011;4556;49.150;8.808;2023-05-29T14:51:14;4.03;;;2.07;;
9042;SDS011;4556;49.150;8.808;2023-05-29T14:53:42;4.23;;;2.20;;
9042;SDS011;4556;49.150;8.808;2023-05-29T14:56:09;4.20;;;1.80;;
9042;SDS011;4556;49.150;8.808;2023-05-29T14:58:38;3.93;;;2.00;;
9042;SDS011;4556;49.150;8.808;2023-05-29T15:01:06;3.50;;;2.13;;
9042;SDS011;4556;49.150;8.808;2023-05-29T15:03:33;3.30;;;2.17;;
9042;SDS011;4556;49.150;8.808;2023-05-29T15:06:00;5.90;;;2.40;;
9042;SDS011;4556;49.150;8.808;2023-05-29T15:08:27;2.97;;;1.90;;
9042;SDS011;4556;49.150;8.808;2023-05-29T15:10:59;4.47;;;2.10;;
9042;SDS011;4556;49.150;8.808;2023-05-29T15:13:27;3.07;;;2.10;;
9042;SDS011;4556;49.150;8.808;2023-05-29T15:15:56;5.03;;;2.07;;
9042;SDS011;4556;49.150;8.808;2023-05-29T15:18:24;3.77;;;2.33;;
9042;SDS011;4556;49.150;8.808;2023-05-29T15:20:51;2.53;;;1.93;;
9042;SDS011;4556;49.150;8.808;2023-05-29T15:23:19;2.27;;;1.70;;
9042;SDS011;4556;49.150;8.808;2023-05-29T15:25:47;3.40;;;2.20;;
9042;SDS011;4556;49.150;8.808;2023-05-29T15:28:14;2.23;;;2.00;;
9042;SDS011;4556;49.150;8.808;2023-05-29T15:30:41;3.30;;;2.00;;
9042;SDS011;4556;49.150;8.808;2023-05-29T15:33:09;3.83;;;1.90;;
9042;SDS011;4556;49.150;8.808;2023-05-29T15:35:37;2.57;;;1.90;;
9042;SDS011;4556;49.150;8.808;2023-05-29T15:38:06;3.83;;;2.27;;